Argyle, New York
Current Conditions -  °F | °C
As of 11:53 AM on Thursday 23 Oct 2014 (Local Time) from KGFL Reporting Station
Moderate Rain Moderate Rain  
Wind Chill: 44°   Ceiling: 1500
Heat Index: 47°   Visibility: 4mi
Dew Point: 44°   Wind: 7mph
Humidity: 90%   Direction: 40°NE
Pressure: 29.88"   Gusts: NA
Location:  43.24°N, 73.49°W
Report Text: KGFL 231553Z AUTO 04006KT 4SM RA BR BKN015 OVC021 08/07 A2988 RMK AO2 SLP123 P0014 T00830067
Loading
Personal Weather Stations






























Interactive Weather Map
Tropical Storm Tracking
New forecast layout! Learn more

10-Day Weather Forecast

Advertisements
Track Severe Weather on mobile